sensor_id;sensor_type;location;lat;lon;timestamp;temperature;humidity
35395;DHT22;21500;45.308;9.488;2023-05-08T00:01:50;19.80;99.90
35395;DHT22;21500;45.308;9.488;2023-05-08T00:04:15;19.90;99.90
35395;DHT22;21500;45.308;9.488;2023-05-08T00:06:42;19.80;99.90
35395;DHT22;21500;45.308;9.488;2023-05-08T00:09:07;19.70;99.90
35395;DHT22;21500;45.308;9.488;2023-05-08T00:11:33;19.60;99.90
35395;DHT22;21500;45.308;9.488;2023-05-08T00:13:58;19.60;99.90
35395;DHT22;21500;45.308;9.488;2023-05-08T00:16:24;19.60;99.90
35395;DHT22;21500;45.308;9.488;2023-05-08T00:18:49;19.50;99.90
35395;DHT22;21500;45.308;9.488;2023-05-08T00:21:17;19.40;99.90
35395;DHT22;21500;45.308;9.488;2023-05-08T00:23:43;19.50;99.90
35395;DHT22;21500;45.308;9.488;2023-05-08T00:26:09;19.50;99.90
35395;DHT22;21500;45.308;9.488;2023-05-08T00:28:34;19.40;99.90
35395;DHT22;21500;45.308;9.488;2023-05-08T00:31:00;19.30;99.90
35395;DHT22;21500;45.308;9.488;2023-05-08T00:33:28;19.40;99.90
35395;DHT22;21500;45.308;9.488;2023-05-08T00:35:58;19.30;99.90
35395;DHT22;21500;45.308;9.488;2023-05-08T00:38:24;19.40;99.90
35395;DHT22;21500;45.308;9.488;2023-05-08T00:40:50;19.40;99.90
35395;DHT22;21500;45.308;9.488;2023-05-08T00:43:16;19.40;99.90
35395;DHT22;21500;45.308;9.488;2023-05-08T00:45:42;19.30;99.90
35395;DHT22;21500;45.308;9.488;2023-05-08T00:48:07;19.30;99.90
35395;DHT22;21500;45.308;9.488;2023-05-08T00:50:33;19.10;99.90
35395;DHT22;21500;45.308;9.488;2023-05-08T00:53:00;19.00;99.90
35395;DHT22;21500;45.308;9.488;2023-05-08T00:55:27;19.10;99.90
35395;DHT22;21500;45.308;9.488;2023-05-08T00:57:53;19.20;99.90
35395;DHT22;21500;45.308;9.488;2023-05-08T01:00:19;19.10;99.90
35395;DHT22;21500;45.308;9.488;2023-05-08T01:02:45;19.20;99.90
35395;DHT22;21500;45.308;9.488;2023-05-08T01:05:11;19.10;99.90
35395;DHT22;21500;45.308;9.488;2023-05-08T01:07:37;19.00;99.90
35395;DHT22;21500;45.308;9.488;2023-05-08T01:10:04;19.00;99.90
35395;DHT22;21500;45.308;9.488;2023-05-08T01:12:52;18.90;99.90
35395;DHT22;21500;45.308;9.488;2023-05-08T01:15:21;19.00;99.90
35395;DHT22;21500;45.308;9.488;2023-05-08T01:17:56;19.00;99.90
35395;DHT22;21500;45.308;9.488;2023-05-08T01:23:07;18.80;99.90
35395;DHT22;21500;45.308;9.488;2023-05-08T01:30:57;18.90;99.90
35395;DHT22;21500;45.308;9.488;2023-05-08T01:36:19;18.80;99.90
35395;DHT22;21500;45.308;9.488;2023-05-08T01:41:17;18.80;99.90
35395;DHT22;21500;45.308;9.488;2023-05-08T01:46:18;18.80;99.90
35395;DHT22;21500;45.308;9.488;2023-05-08T01:48:48;18.80;99.90
35395;DHT22;21500;45.308;9.488;2023-05-08T01:51:16;18.70;99.90
35395;DHT22;21500;45.308;9.488;2023-05-08T01:53:44;18.80;99.90
35395;DHT22;21500;45.308;9.488;2023-05-08T01:56:15;18.70;99.90
35395;DHT22;21500;45.308;9.488;2023-05-08T01:58:43;18.80;99.90
35395;DHT22;21500;45.308;9.488;2023-05-08T02:01:11;18.80;99.90
35395;DHT22;21500;45.308;9.488;2023-05-08T02:03:38;18.80;99.90
35395;DHT22;21500;45.308;9.488;2023-05-08T02:06:05;18.80;99.90
35395;DHT22;21500;45.308;9.488;2023-05-08T02:08:30;18.70;99.90
35395;DHT22;21500;45.308;9.488;2023-05-08T02:10:57;18.60;99.90
35395;DHT22;21500;45.308;9.488;2023-05-08T02:13:23;18.60;99.90
35395;DHT22;21500;45.308;9.488;2023-05-08T02:15:51;18.50;99.90
35395;DHT22;21500;45.308;9.488;2023-05-08T02:18:19;18.60;99.90
35395;DHT22;21500;45.308;9.488;2023-05-08T02:20:45;18.60;99.90
35395;DHT22;21500;45.308;9.488;2023-05-08T02:23:12;18.60;99.90
35395;DHT22;21500;45.308;9.488;2023-05-08T02:25:39;18.70;99.90
35395;DHT22;21500;45.308;9.488;2023-05-08T02:28:06;18.70;99.90
35395;DHT22;21500;45.308;9.488;2023-05-08T02:30:32;18.60;99.90
35395;DHT22;21500;45.308;9.488;2023-05-08T02:32:58;18.70;99.90
35395;DHT22;21500;45.308;9.488;2023-05-08T02:35:25;18.70;99.90
35395;DHT22;21500;45.308;9.488;2023-05-08T02:37:53;18.70;99.90
35395;DHT22;21500;45.308;9.488;2023-05-08T02:40:20;18.80;99.90
35395;DHT22;21500;45.308;9.488;2023-05-08T02:42:46;18.80;99.90
35395;DHT22;21500;45.308;9.488;2023-05-08T02:45:13;18.90;99.90
35395;DHT22;21500;45.308;9.488;2023-05-08T02:50:15;18.80;99.90
35395;DHT22;21500;45.308;9.488;2023-05-08T02:52:51;18.80;99.90
35395;DHT22;21500;45.308;9.488;2023-05-08T03:00:30;18.70;99.90
35395;DHT22;21500;45.308;9.488;2023-05-08T03:03:04;18.60;99.90
35395;DHT22;21500;45.308;9.488;2023-05-08T03:05:32;18.70;99.90
35395;DHT22;21500;45.308;9.488;2023-05-08T03:08:01;18.60;99.90
35395;DHT22;21500;45.308;9.488;2023-05-08T03:10:28;18.60;99.90
35395;DHT22;21500;45.308;9.488;2023-05-08T03:12:56;18.60;99.90
35395;DHT22;21500;45.308;9.488;2023-05-08T03:15:36;18.60;99.90
35395;DHT22;21500;45.308;9.488;2023-05-08T03:18:05;18.60;99.90
35395;DHT22;21500;45.308;9.488;2023-05-08T03:20:32;18.50;99.90
35395;DHT22;21500;45.308;9.488;2023-05-08T03:23:01;18.60;99.90
35395;DHT22;21500;45.308;9.488;2023-05-08T03:25:27;18.60;99.90
35395;DHT22;21500;45.308;9.488;2023-05-08T03:27:54;18.60;99.90
35395;DHT22;21500;45.308;9.488;2023-05-08T03:30:20;18.60;99.90
35395;DHT22;21500;45.308;9.488;2023-05-08T03:32:56;18.60;99.90
35395;DHT22;21500;45.308;9.488;2023-05-08T03:35:22;18.60;99.90
35395;DHT22;21500;45.308;9.488;2023-05-08T03:37:49;18.50;99.90
35395;DHT22;21500;45.308;9.488;2023-05-08T03:40:15;18.60;99.90
35395;DHT22;21500;45.308;9.488;2023-05-08T03:42:40;18.80;99.90
35395;DHT22;21500;45.308;9.488;2023-05-08T03:45:07;18.80;99.90
35395;DHT22;21500;45.308;9.488;2023-05-08T03:47:34;18.70;99.90
35395;DHT22;21500;45.308;9.488;2023-05-08T03:50:00;18.70;99.90
35395;DHT22;21500;45.308;9.488;2023-05-08T03:52:25;18.70;99.90
35395;DHT22;21500;45.308;9.488;2023-05-08T03:54:51;18.60;99.90
35395;DHT22;21500;45.308;9.488;2023-05-08T03:57:17;18.60;99.90
35395;DHT22;21500;45.308;9.488;2023-05-08T03:59:45;18.60;99.90
35395;DHT22;21500;45.308;9.488;2023-05-08T04:02:16;18.60;99.90
35395;DHT22;21500;45.308;9.488;2023-05-08T04:04:46;18.50;99.90
35395;DHT22;21500;45.308;9.488;2023-05-08T04:15:22;18.40;99.90
35395;DHT22;21500;45.308;9.488;2023-05-08T04:17:53;18.40;99.90
35395;DHT22;21500;45.308;9.488;2023-05-08T04:20:20;18.40;99.90
35395;DHT22;21500;45.308;9.488;2023-05-08T04:22:49;18.40;99.90
35395;DHT22;21500;45.308;9.488;2023-05-08T04:25:15;18.40;99.90
35395;DHT22;21500;45.308;9.488;2023-05-08T04:27:43;18.40;99.90
35395;DHT22;21500;45.308;9.488;2023-05-08T04:30:09;18.30;99.90
35395;DHT22;21500;45.308;9.488;2023-05-08T04:32:35;18.10;99.90
35395;DHT22;21500;45.308;9.488;2023-05-08T04:35:03;18.10;99.90
35395;DHT22;21500;45.308;9.488;2023-05-08T04:37:29;18.10;99.90
35395;DHT22;21500;45.308;9.488;2023-05-08T04:40:00;18.10;99.90
35395;DHT22;21500;45.308;9.488;2023-05-08T04:42:26;17.90;99.90
35395;DHT22;21500;45.308;9.488;2023-05-08T04:44:54;17.90;99.90
35395;DHT22;21500;45.308;9.488;2023-05-08T04:47:20;17.90;99.90
35395;DHT22;21500;45.308;9.488;2023-05-08T04:49:46;17.90;99.90
35395;DHT22;21500;45.308;9.488;2023-05-08T04:52:12;17.90;99.90
35395;DHT22;21500;45.308;9.488;2023-05-08T04:54:38;17.80;99.90
35395;DHT22;21500;45.308;9.488;2023-05-08T04:57:04;17.80;99.90
35395;DHT22;21500;45.308;9.488;2023-05-08T04:59:32;17.90;99.90
35395;DHT22;21500;45.308;9.488;2023-05-08T05:01:57;18.00;99.90
35395;DHT22;21500;45.308;9.488;2023-05-08T05:04:26;18.00;99.90
35395;DHT22;21500;45.308;9.488;2023-05-08T05:06:53;18.00;99.90
35395;DHT22;21500;45.308;9.488;2023-05-08T05:09:19;18.10;99.90
35395;DHT22;21500;45.308;9.488;2023-05-08T05:11:45;18.10;99.90
35395;DHT22;21500;45.308;9.488;2023-05-08T05:14:11;18.30;99.90
35395;DHT22;21500;45.308;9.488;2023-05-08T05:16:36;18.30;99.90
35395;DHT22;21500;45.308;9.488;2023-05-08T05:19:02;18.40;99.90
35395;DHT22;21500;45.308;9.488;2023-05-08T05:21:29;18.40;99.90
35395;DHT22;21500;45.308;9.488;2023-05-08T05:23:55;18.40;99.90
35395;DHT22;21500;45.308;9.488;2023-05-08T05:26:20;18.40;99.90
35395;DHT22;21500;45.308;9.488;2023-05-08T05:28:46;18.50;99.90
35395;DHT22;21500;45.308;9.488;2023-05-08T05:31:12;18.40;99.90
35395;DHT22;21500;45.308;9.488;2023-05-08T05:33:38;18.40;99.90
35395;DHT22;21500;45.308;9.488;2023-05-08T19:20:54;20.40;99.90
35395;DHT22;21500;45.308;9.488;2023-05-08T19:28:59;20.30;99.90
35395;DHT22;21500;45.308;9.488;2023-05-08T19:31:25;20.30;99.90
35395;DHT22;21500;45.308;9.488;2023-05-08T19:36:33;20.20;99.90
35395;DHT22;21500;45.308;9.488;2023-05-08T19:38:58;20.30;99.90
35395;DHT22;21500;45.308;9.488;2023-05-08T19:41:24;20.20;99.90
35395;DHT22;21500;45.308;9.488;2023-05-08T19:43:50;20.20;99.90
35395;DHT22;21500;45.308;9.488;2023-05-08T19:46:16;20.20;99.90
35395;DHT22;21500;45.308;9.488;2023-05-08T19:48:41;20.20;99.90
35395;DHT22;21500;45.308;9.488;2023-05-08T19:51:07;20.10;99.90
35395;DHT22;21500;45.308;9.488;2023-05-08T19:53:33;20.20;99.90
35395;DHT22;21500;45.308;9.488;2023-05-08T19:55:59;20.10;99.90
35395;DHT22;21500;45.308;9.488;2023-05-08T19:58:24;20.10;99.90
35395;DHT22;21500;45.308;9.488;2023-05-08T20:00:50;20.10;99.90
35395;DHT22;21500;45.308;9.488;2023-05-08T20:03:16;20.10;99.90
35395;DHT22;21500;45.308;9.488;2023-05-08T20:05:41;20.10;99.90
35395;DHT22;21500;45.308;9.488;2023-05-08T20:08:07;20.00;99.90
35395;DHT22;21500;45.308;9.488;2023-05-08T20:10:33;20.00;99.90
35395;DHT22;21500;45.308;9.488;2023-05-08T20:12:58;20.00;99.90
35395;DHT22;21500;45.308;9.488;2023-05-08T20:15:24;20.00;99.90
35395;DHT22;21500;45.308;9.488;2023-05-08T20:17:50;19.90;99.90
35395;DHT22;21500;45.308;9.488;2023-05-08T20:20:15;19.90;99.90
35395;DHT22;21500;45.308;9.488;2023-05-08T20:22:41;19.90;99.90
35395;DHT22;21500;45.308;9.488;2023-05-08T20:25:07;19.90;99.90
35395;DHT22;21500;45.308;9.488;2023-05-08T20:27:32;19.80;99.90
35395;DHT22;21500;45.308;9.488;2023-05-08T20:29:58;19.80;99.90
35395;DHT22;21500;45.308;9.488;2023-05-08T20:32:24;19.80;99.90
35395;DHT22;21500;45.308;9.488;2023-05-08T20:34:50;19.80;99.90
35395;DHT22;21500;45.308;9.488;2023-05-08T20:37:16;19.80;99.90
35395;DHT22;21500;45.308;9.488;2023-05-08T20:39:41;19.70;99.90
35395;DHT22;21500;45.308;9.488;2023-05-08T20:42:07;19.70;99.90
35395;DHT22;21500;45.308;9.488;2023-05-08T20:44:33;19.70;99.90
35395;DHT22;21500;45.308;9.488;2023-05-08T20:46:59;19.70;99.90
35395;DHT22;21500;45.308;9.488;2023-05-08T20:49:24;19.70;99.90
35395;DHT22;21500;45.308;9.488;2023-05-08T20:51:50;19.60;99.90
35395;DHT22;21500;45.308;9.488;2023-05-08T20:54:16;19.60;99.90
35395;DHT22;21500;45.308;9.488;2023-05-08T20:56:41;19.60;99.90
35395;DHT22;21500;45.308;9.488;2023-05-08T20:59:07;19.60;99.90
35395;DHT22;21500;45.308;9.488;2023-05-08T21:01:33;19.60;99.90
35395;DHT22;21500;45.308;9.488;2023-05-08T21:03:58;19.60;99.90
35395;DHT22;21500;45.308;9.488;2023-05-08T21:06:24;19.50;99.90
35395;DHT22;21500;45.308;9.488;2023-05-08T21:08:50;19.50;99.90
35395;DHT22;21500;45.308;9.488;2023-05-08T21:11:15;19.50;99.90
35395;DHT22;21500;45.308;9.488;2023-05-08T21:13:41;19.50;99.90
35395;DHT22;21500;45.308;9.488;2023-05-08T21:16:10;19.50;99.90
35395;DHT22;21500;45.308;9.488;2023-05-08T21:18:36;19.50;99.90
35395;DHT22;21500;45.308;9.488;2023-05-08T21:21:01;19.50;99.90
35395;DHT22;21500;45.308;9.488;2023-05-08T21:23:27;19.50;99.90
35395;DHT22;21500;45.308;9.488;2023-05-08T21:25:53;19.50;99.90
35395;DHT22;21500;45.308;9.488;2023-05-08T21:28:19;19.50;99.90
35395;DHT22;21500;45.308;9.488;2023-05-08T21:30:45;19.40;99.90
35395;DHT22;21500;45.308;9.488;2023-05-08T21:33:11;19.30;99.90
35395;DHT22;21500;45.308;9.488;2023-05-08T21:35:41;19.40;99.90
35395;DHT22;21500;45.308;9.488;2023-05-08T21:38:07;19.30;99.90
35395;DHT22;21500;45.308;9.488;2023-05-08T21:40:33;19.30;99.90
35395;DHT22;21500;45.308;9.488;2023-05-08T21:42:59;19.20;99.90
35395;DHT22;21500;45.308;9.488;2023-05-08T21:45:28;19.20;99.90
35395;DHT22;21500;45.308;9.488;2023-05-08T21:47:53;19.20;99.90
35395;DHT22;21500;45.308;9.488;2023-05-08T21:50:19;19.20;99.90
35395;DHT22;21500;45.308;9.488;2023-05-08T21:52:44;19.20;99.90
35395;DHT22;21500;45.308;9.488;2023-05-08T21:55:10;19.10;99.90
35395;DHT22;21500;45.308;9.488;2023-05-08T21:57:36;19.20;99.90
35395;DHT22;21500;45.308;9.488;2023-05-08T22:00:02;19.10;99.90
35395;DHT22;21500;45.308;9.488;2023-05-08T22:02:28;19.20;99.90
35395;DHT22;21500;45.308;9.488;2023-05-08T22:04:53;19.10;99.90
35395;DHT22;21500;45.308;9.488;2023-05-08T22:07:19;19.20;99.90
35395;DHT22;21500;45.308;9.488;2023-05-08T22:09:45;19.20;99.90
35395;DHT22;21500;45.308;9.488;2023-05-08T22:12:11;19.10;99.90
35395;DHT22;21500;45.308;9.488;2023-05-08T22:14:37;19.10;99.90
35395;DHT22;21500;45.308;9.488;2023-05-08T22:17:03;19.10;99.90
35395;DHT22;21500;45.308;9.488;2023-05-08T22:19:29;19.10;99.90
35395;DHT22;21500;45.308;9.488;2023-05-08T22:21:55;19.10;99.90
35395;DHT22;21500;45.308;9.488;2023-05-08T22:24:21;19.10;99.90
35395;DHT22;21500;45.308;9.488;2023-05-08T22:26:47;19.10;99.90
35395;DHT22;21500;45.308;9.488;2023-05-08T22:29:12;19.10;99.90
35395;DHT22;21500;45.308;9.488;2023-05-08T22:31:38;19.10;99.90
35395;DHT22;21500;45.308;9.488;2023-05-08T22:34:03;19.10;99.90
35395;DHT22;21500;45.308;9.488;2023-05-08T22:36:29;19.10;99.90
35395;DHT22;21500;45.308;9.488;2023-05-08T22:38:55;19.20;99.90
35395;DHT22;21500;45.308;9.488;2023-05-08T22:41:20;19.10;99.90
35395;DHT22;21500;45.308;9.488;2023-05-08T22:43:46;19.10;99.90
35395;DHT22;21500;45.308;9.488;2023-05-08T22:46:12;19.00;99.90
35395;DHT22;21500;45.308;9.488;2023-05-08T22:48:37;19.00;99.90
35395;DHT22;21500;45.308;9.488;2023-05-08T22:51:03;19.10;99.90
35395;DHT22;21500;45.308;9.488;2023-05-08T22:53:29;19.10;99.90
35395;DHT22;21500;45.308;9.488;2023-05-08T22:55:54;19.00;99.90
35395;DHT22;21500;45.308;9.488;2023-05-08T22:58:20;19.00;99.90
35395;DHT22;21500;45.308;9.488;2023-05-08T23:00:46;19.00;99.90
35395;DHT22;21500;45.308;9.488;2023-05-08T23:03:11;19.00;99.90
35395;DHT22;21500;45.308;9.488;2023-05-08T23:05:37;19.00;99.90
35395;DHT22;21500;45.308;9.488;2023-05-08T23:08:03;19.00;99.90
35395;DHT22;21500;45.308;9.488;2023-05-08T23:10:28;19.00;99.90
35395;DHT22;21500;45.308;9.488;2023-05-08T23:12:54;18.90;99.90
35395;DHT22;21500;45.308;9.488;2023-05-08T23:15:20;18.90;99.90
35395;DHT22;21500;45.308;9.488;2023-05-08T23:17:45;18.80;99.90
35395;DHT22;21500;45.308;9.488;2023-05-08T23:20:11;18.90;99.90
35395;DHT22;21500;45.308;9.488;2023-05-08T23:22:37;18.70;99.90
35395;DHT22;21500;45.308;9.488;2023-05-08T23:25:02;18.70;99.90
35395;DHT22;21500;45.308;9.488;2023-05-08T23:27:28;18.80;99.90
35395;DHT22;21500;45.308;9.488;2023-05-08T23:29:53;18.70;99.90
35395;DHT22;21500;45.308;9.488;2023-05-08T23:32:19;18.60;99.90
35395;DHT22;21500;45.308;9.488;2023-05-08T23:34:45;18.60;99.90
35395;DHT22;21500;45.308;9.488;2023-05-08T23:37:10;18.60;99.90
35395;DHT22;21500;45.308;9.488;2023-05-08T23:39:36;18.60;99.90
35395;DHT22;21500;45.308;9.488;2023-05-08T23:42:05;18.60;99.90
35395;DHT22;21500;45.308;9.488;2023-05-08T23:44:31;18.60;99.90
35395;DHT22;21500;45.308;9.488;2023-05-08T23:46:57;18.60;99.90
35395;DHT22;21500;45.308;9.488;2023-05-08T23:49:22;18.50;99.90
35395;DHT22;21500;45.308;9.488;2023-05-08T23:51:48;18.50;99.90
35395;DHT22;21500;45.308;9.488;2023-05-08T23:54:14;18.50;99.90
35395;DHT22;21500;45.308;9.488;2023-05-08T23:56:39;18.40;99.90
35395;DHT22;21500;45.308;9.488;2023-05-08T23:59:05;18.40;99.90
